Time;durP1;ratioP1;P1;durP2;ratioP2;P2;SDS_P1;SDS_P2;PMS_P1;PMS_P2;Temp;Humidity;BMP_temperature;BMP_pressure;BME280_temperature;BME280_humidity;BME280_pressure;Samples;Min_cycle;Max_cycle;Signal;HPM_P1;HPM_P2
2023/09/25 00:02:32;;;;;;;;;11.80;11.40;;;;;19.67;100.00;99706.66;6258974;28;96309;-61
2023/09/25 00:05:36;;;;;;;;;10.20;10.00;;;;;19.68;100.00;99714.63;6258793;28;96329;-61
2023/09/25 00:08:39;;;;;;;;;10.80;10.00;;;;;19.72;100.00;99707.53;6258819;28;96295;-61
2023/09/25 00:11:44;;;;;;;;;11.80;10.80;;;;;19.73;100.00;99706.47;6258624;28;96461;-61
2023/09/25 00:14:47;;;;;;;;;12.00;10.40;;;;;19.72;100.00;99707.53;6257956;28;96213;-61
2023/09/25 00:17:50;;;;;;;;;12.00;11.60;;;;;19.73;100.00;99711.94;6259039;27;96282;-61
2023/09/25 00:20:54;;;;;;;;;13.40;12.80;;;;;19.76;100.00;99710.56;6257741;28;96342;-61
2023/09/25 00:23:57;;;;;;;;;13.00;11.60;;;;;19.81;100.00;99718.81;6259468;28;96365;-61
2023/09/25 00:27:01;;;;;;;;;15.00;14.00;;;;;19.81;100.00;99711.44;6258863;28;96473;-61
2023/09/25 00:30:08;;;;;;;;;16.75;16.75;;;;;19.78;100.00;99709.25;6259556;27;96603;-61
2023/09/25 00:33:12;;;;;;;;;19.00;17.00;;;;;19.80;100.00;99715.25;6259928;28;96363;-61
2023/09/25 00:36:16;;;;;;;;;16.00;15.00;;;;;19.81;100.00;99708.69;6276110;27;96983;-61
2023/09/25 00:39:19;;;;;;;;;17.00;15.00;;;;;19.79;100.00;99701.84;6259502;28;96358;-61
2023/09/25 00:42:24;;;;;;;;;17.50;15.50;;;;;19.79;100.00;99694.44;6259394;28;96237;-61
2023/09/25 00:45:28;;;;;;;;;20.00;18.75;;;;;19.79;100.00;99697.19;6257596;28;96705;-61
2023/09/25 00:48:34;;;;;;;;;18.25;17.25;;;;;19.79;100.00;99691.69;6258831;27;96289;-61
2023/09/25 00:51:38;;;;;;;;;18.00;17.00;;;;;19.78;100.00;99684.59;6275107;27;96363;-61
2023/09/25 00:54:42;;;;;;;;;18.60;16.40;;;;;19.74;100.00;99686.19;6259432;27;96664;-62
2023/09/25 00:57:49;;;;;;;;;17.00;16.67;;;;;19.75;100.00;99687.03;6258719;28;96372;-62
2023/09/25 01:00:53;;;;;;;;;16.60;15.00;;;;;19.63;100.00;99672.72;6257737;28;96321;-61
2023/09/25 01:03:57;;;;;;;;;16.60;16.00;;;;;19.62;100.00;99671.06;6273756;27;96392;-61
2023/09/25 01:07:01;;;;;;;;;17.75;17.00;;;;;19.63;100.00;99678.19;6257133;28;96421;-61
2023/09/25 01:10:06;;;;;;;;;15.50;14.00;;;;;19.65;100.00;99678.72;6256976;28;97013;-61
2023/09/25 01:13:11;;;;;;;;;15.00;14.00;;;;;19.69;100.00;99682.63;6274481;27;96886;-61
2023/09/25 01:16:14;;;;;;;;;14.00;14.00;;;;;19.74;100.00;99677.19;6255701;28;96397;-61
2023/09/25 01:19:18;;;;;;;;;15.40;15.00;;;;;19.76;100.00;99681.28;6239280;28;96770;-61
2023/09/25 01:22:22;;;;;;;;;14.60;12.00;;;;;19.75;100.00;99676.91;6257882;27;96325;-61
2023/09/25 01:25:25;;;;;;;;;11.80;11.40;;;;;19.76;100.00;99675.81;6274038;27;96367;-61
2023/09/25 01:28:29;;;;;;;;;10.60;10.00;;;;;19.77;100.00;99679.38;6258217;28;96345;-61
2023/09/25 01:31:32;;;;;;;;;10.00;10.00;;;;;19.82;100.00;99682.16;6255881;27;98489;-62
2023/09/25 01:34:35;;;;;;;;;10.40;10.00;;;;;19.83;100.00;99681.09;6257675;28;96350;-61
2023/09/25 01:37:40;;;;;;;;;11.40;10.40;;;;;19.81;100.00;99681.34;6272928;27;96339;-61
2023/09/25 01:40:44;;;;;;;;;12.00;11.00;;;;;19.77;100.00;99669.28;6273727;27;96358;-61
2023/09/25 01:43:47;;;;;;;;;11.00;10.00;;;;;19.76;100.00;99673.09;6256037;28;96297;-61
2023/09/25 01:46:50;;;;;;;;;13.20;13.00;;;;;19.70;100.00;99670.56;6255869;28;96991;-61
2023/09/25 01:49:54;;;;;;;;;13.00;12.67;;;;;19.68;100.00;99678.22;6255269;28;96450;-61
2023/09/25 01:53:00;;;;;;;;;10.00;10.00;;;;;19.70;100.00;99667.81;6256146;28;96350;-61
2023/09/25 01:56:11;;;;;;;;;12.40;11.40;;;;;19.72;100.00;99673.88;6255213;28;96315;-61
2023/09/25 01:59:14;;;;;;;;;13.50;13.50;;;;;19.73;100.00;99670.06;6255650;28;96429;-61
2023/09/25 02:02:17;;;;;;;;;15.00;15.00;;;;;19.74;100.00;99669.78;6289477;27;96175;-61
2023/09/25 02:05:21;;;;;;;;;11.00;10.60;;;;;19.76;100.00;99664.06;6289991;27;96823;-61
2023/09/25 02:08:25;;;;;;;;;14.25;13.25;;;;;19.77;100.00;99666.53;6256992;27;96267;-61
2023/09/25 02:11:29;;;;;;;;;13.00;12.50;;;;;19.77;100.00;99663.78;6255356;28;96254;-60
2023/09/25 02:14:32;;;;;;;;;12.40;12.00;;;;;19.78;100.00;99659.16;6254925;28;96741;-61
2023/09/25 02:17:36;;;;;;;;;10.00;10.00;;;;;19.76;100.00;99666.78;6256469;28;96904;-61
2023/09/25 02:20:39;;;;;;;;;11.50;11.00;;;;;19.80;100.00;99655.06;6288714;27;96242;-60
2023/09/25 02:23:44;;;;;;;;;11.25;11.00;;;;;19.82;100.00;99655.63;6255275;28;96848;-61
2023/09/25 02:26:47;;;;;;;;;12.00;12.00;;;;;19.81;100.00;99653.97;6237899;28;98379;-61
2023/09/25 02:29:51;;;;;;;;;14.00;14.00;;;;;19.83;100.00;99654.53;6256483;27;96276;-61
2023/09/25 02:32:54;;;;;;;;;13.00;12.00;;;;;19.87;100.00;99655.66;6288067;27;96883;-61
2023/09/25 02:36:03;;;;;;;;;13.60;13.00;;;;;19.91;100.00;99664.16;6256027;28;96331;-60
2023/09/25 02:39:09;;;;;;;;;10.00;10.00;;;;;19.92;100.00;99665.00;6255299;28;96768;-61
2023/09/25 02:42:13;;;;;;;;;12.00;10.40;;;;;19.90;100.00;99659.78;6255195;27;98591;-61
2023/09/25 02:45:17;;;;;;;;;11.00;11.00;;;;;19.86;100.00;99656.75;6260831;28;96358;-61
2023/09/25 02:48:21;;;;;;;;;11.00;10.20;;;;;19.87;100.00;99660.31;6259557;27;96294;-61
2023/09/25 02:51:24;;;;;;;;;11.00;10.50;;;;;19.84;100.00;99667.13;6242235;28;96682;-61
2023/09/25 02:54:28;;;;;;;;;11.40;11.40;;;;;19.79;100.00;99672.56;6275584;27;98344;-61
2023/09/25 02:57:32;;;;;;;;;10.75;10.75;;;;;19.82;100.00;99672.03;6242409;28;98457;-60
2023/09/25 03:00:38;;;;;;;;;9.40;8.00;;;;;19.83;100.00;99673.69;6293555;27;96350;-61
2023/09/25 03:03:41;;;;;;;;;10.00;9.50;;;;;19.86;100.00;99677.81;6259440;28;97421;-61
2023/09/25 03:06:44;;;;;;;;;10.50;10.00;;;;;19.88;100.00;99675.66;6260149;28;96318;-61
2023/09/25 03:09:50;;;;;;;;;9.60;9.60;;;;;19.90;100.00;99679.75;6260578;28;96372;-61
2023/09/25 03:12:53;;;;;;;;;10.00;9.00;;;;;19.93;100.00;99675.69;6258598;28;96320;-61
2023/09/25 03:15:56;;;;;;;;;10.60;10.60;;;;;19.92;100.00;99676.75;6275782;27;96366;-61
2023/09/25 03:19:00;;;;;;;;;10.00;10.00;;;;;19.89;100.00;99671.78;6293663;27;96900;-61
2023/09/25 03:22:03;;;;;;;;;12.60;12.00;;;;;19.90;100.00;99671.53;6259300;28;96390;-60
2023/09/25 03:25:10;;;;;;;;;9.60;9.40;;;;;19.90;100.00;99666.06;6290833;27;96362;-62
2023/09/25 03:28:13;;;;;;;;;10.00;10.00;;;;;19.94;100.00;99662.81;6258974;28;96255;-61
2023/09/25 03:31:17;;;;;;;;;13.40;13.00;;;;;19.94;100.00;99660.09;6258448;28;97034;-61
2023/09/25 03:34:20;;;;;;;;;9.00;9.00;;;;;19.96;100.00;99652.41;6258792;27;96215;-61
2023/09/25 03:37:25;;;;;;;;;13.40;12.40;;;;;19.97;100.00;99656.81;6274926;27;96333;-61
2023/09/25 03:40:29;;;;;;;;;11.00;11.00;;;;;19.99;100.00;99660.91;6273844;27;96515;-61
2023/09/25 03:43:33;;;;;;;;;13.75;13.00;;;;;19.94;100.00;99649.13;6275032;27;96338;-61
2023/09/25 03:46:37;;;;;;;;;12.40;12.40;;;;;20.07;100.00;99662.34;6291870;27;96356;-61
2023/09/25 03:49:42;;;;;;;;;15.50;13.75;;;;;20.08;100.00;99666.75;6258656;28;96332;-61
2023/09/25 03:52:45;;;;;;;;;13.00;13.00;;;;;20.08;100.00;99659.34;6257944;27;96338;-61
2023/09/25 03:55:50;;;;;;;;;16.20;15.00;;;;;19.99;100.00;99663.66;6255519;28;96954;-62
2023/09/25 03:58:54;;;;;;;;;13.80;12.80;;;;;19.87;100.00;99671.25;6288691;27;96357;-62
2023/09/25 04:01:58;;;;;;;;;16.60;16.60;;;;;19.74;100.00;99675.25;6258328;27;96727;-61
2023/09/25 04:05:01;;;;;;;;;16.00;15.00;;;;;19.81;100.00;99675.03;6257685;27;96280;-61
2023/09/25 04:08:05;;;;;;;;;17.40;15.40;;;;;19.72;100.00;99671.97;6255384;28;96391;-61
2023/09/25 04:11:11;;;;;;;;;15.60;15.20;;;;;19.69;100.00;99667.03;6224866;28;97389;-62
2023/09/25 04:14:15;;;;;;;;;19.00;17.00;;;;;19.74;100.00;99674.44;6241705;27;96008;-62
2023/09/25 04:17:20;;;;;;;;;18.20;13.60;;;;;19.68;100.00;99679.06;6242695;28;96392;-63
2023/09/25 04:20:25;;;;;;;;;13.60;12.60;;;;;19.71;100.00;99674.97;6239811;28;96676;-63
2023/09/25 04:23:28;;;;;;;;;15.00;14.00;;;;;19.68;100.00;99679.06;6240361;28;96496;-63
2023/09/25 04:26:33;;;;;;;;;14.60;14.00;;;;;19.67;100.00;99673.84;6240941;27;96453;-64
2023/09/25 04:29:38;;;;;;;;;15.00;14.50;;;;;19.68;100.00;99683.69;6240977;28;96444;-63
2023/09/25 04:32:43;;;;;;;;;16.60;16.60;;;;;19.71;100.00;99675.78;6255693;27;96915;-63
2023/09/25 04:35:46;;;;;;;;;15.00;14.00;;;;;19.73;100.00;99676.34;6241058;27;97214;-63
2023/09/25 04:38:49;;;;;;;;;16.40;14.60;;;;;19.75;100.00;99679.63;6240380;28;96918;-63
2023/09/25 04:41:54;;;;;;;;;11.50;11.50;;;;;19.77;100.00;99676.66;6240470;27;96292;-63
2023/09/25 04:44:57;;;;;;;;;10.00;10.00;;;;;19.81;100.00;99685.97;6237726;28;96436;-63
2023/09/25 04:48:00;;;;;;;;;12.60;11.00;;;;;19.82;100.00;99684.91;6237779;27;96610;-63
2023/09/25 04:51:04;;;;;;;;;14.33;13.00;;;;;19.71;100.00;99680.44;6238998;27;96791;-64
2023/09/25 04:54:07;;;;;;;;;13.00;12.00;;;;;19.72;100.00;99688.38;6250051;27;96412;-63
2023/09/25 04:57:11;;;;;;;;;11.00;9.40;;;;;19.77;100.00;99682.13;6237786;28;97083;-64
2023/09/25 05:00:25;;;;;;;;;12.00;10.00;;;;;19.75;100.00;99687.84;6238630;28;97597;-63
2023/09/25 05:03:28;;;;;;;;;11.80;11.80;;;;;19.75;100.00;99682.38;6254443;27;96624;-63
2023/09/25 05:06:32;;;;;;;;;15.20;14.20;;;;;19.73;100.00;99683.75;6238180;27;96380;-63
2023/09/25 05:09:35;;;;;;;;;10.40;10.00;;;;;19.61;100.00;99681.19;6237039;27;97558;-63
2023/09/25 05:12:40;;;;;;;;;12.00;10.00;;;;;19.61;100.00;99674.88;6236822;28;96446;-63
2023/09/25 05:15:43;;;;;;;;;12.40;12.20;;;;;19.65;100.00;99678.72;6236831;27;96515;-63
2023/09/25 05:18:46;;;;;;;;;14.25;12.50;;;;;19.72;100.00;99684.81;6232710;28;98482;-63
2023/09/25 05:21:50;;;;;;;;;12.60;11.60;;;;;19.71;100.00;99669.50;6237635;27;96302;-64
2023/09/25 05:24:53;;;;;;;;;16.00;14.60;;;;;19.72;100.00;99671.97;6238217;27;96398;-64
2023/09/25 05:27:58;;;;;;;;;17.00;16.40;;;;;19.67;100.00;99673.84;6237748;27;96268;-63
2023/09/25 05:31:02;;;;;;;;;14.00;13.00;;;;;19.65;100.00;99676.81;6238128;28;96322;-64
2023/09/25 05:34:05;;;;;;;;;16.20;14.80;;;;;19.63;100.00;99687.22;6236070;28;97007;-64
2023/09/25 05:37:08;;;;;;;;;16.20;14.00;;;;;19.58;100.00;99678.97;6236034;28;96841;-63
2023/09/25 05:40:12;;;;;;;;;14.50;14.50;;;;;19.60;100.00;99682.25;6237806;27;96287;-63
2023/09/25 05:43:16;;;;;;;;;16.50;14.50;;;;;19.55;100.00;99678.69;6236373;28;96209;-64
2023/09/25 05:46:20;;;;;;;;;16.00;15.00;;;;;19.65;100.00;99673.25;6236931;28;96730;-63
2023/09/25 05:49:25;;;;;;;;;20.50;19.00;;;;;19.77;100.00;99677.47;6238698;28;96430;-64
2023/09/25 05:52:28;;;;;;;;;19.00;16.00;;;;;19.83;100.00;99681.09;6238490;28;96329;-64
2023/09/25 05:55:32;;;;;;;;;14.50;14.50;;;;;19.85;100.00;99670.69;6238733;28;96331;-63
2023/09/25 05:58:37;;;;;;;;;15.75;14.25;;;;;19.93;100.00;99677.59;6238783;28;96448;-63
2023/09/25 06:01:40;;;;;;;;;16.00;15.00;;;;;19.89;100.00;99680.00;6236693;28;98478;-63
2023/09/25 06:04:43;;;;;;;;;16.80;15.80;;;;;19.92;100.00;99684.16;6237662;28;96329;-63
2023/09/25 06:07:47;;;;;;;;;16.20;15.00;;;;;19.81;100.00;99683.25;6238600;28;96371;-63
2023/09/25 06:10:59;;;;;;;;;19.75;17.75;;;;;19.81;100.00;99684.06;6235332;28;96602;-63
2023/09/25 06:14:04;;;;;;;;;15.00;15.00;;;;;19.75;100.00;99682.38;6251537;27;96754;-63
2023/09/25 06:17:09;;;;;;;;;18.20;16.80;;;;;19.77;100.00;99680.22;6235689;27;96702;-63
2023/09/25 06:20:16;;;;;;;;;16.00;14.40;;;;;19.72;100.00;99654.72;6241229;28;97065;-63
2023/09/25 06:23:20;;;;;;;;;18.60;18.00;;;;;19.85;100.00;99676.97;6242070;28;96469;-63
2023/09/25 06:26:27;;;;;;;;;15.80;15.00;;;;;19.88;100.00;99678.38;6242559;27;96432;-63
2023/09/25 06:29:32;;;;;;;;;15.40;13.40;;;;;19.87;100.00;99658.41;6241456;28;96447;-63
2023/09/25 06:32:35;;;;;;;;;18.00;16.60;;;;;20.03;100.00;99683.97;6242437;28;96492;-63
2023/09/25 06:35:39;;;;;;;;;20.33;17.00;;;;;20.02;100.00;99667.78;6242367;28;97700;-63
2023/09/25 06:38:42;;;;;;;;;17.00;15.40;;;;;20.06;100.00;99669.75;6223531;28;96759;-63
2023/09/25 06:41:46;;;;;;;;;16.20;14.00;;;;;20.04;100.00;99679.28;6240775;28;96967;-63
2023/09/25 06:44:56;;;;;;;;;17.00;16.60;;;;;20.08;100.00;99681.25;6240921;28;96782;-63
2023/09/25 06:47:59;;;;;;;;;18.20;16.80;;;;;20.07;100.00;99671.38;6223915;28;99448;-62
2023/09/25 06:51:02;;;;;;;;;15.00;13.00;;;;;20.10;100.00;99673.59;6242191;28;96327;-63
2023/09/25 06:54:05;;;;;;;;;15.40;15.00;;;;;20.12;100.00;99670.59;6241799;27;96267;-63
2023/09/25 06:57:09;;;;;;;;;18.00;15.00;;;;;20.14;100.00;99673.88;6241896;28;96363;-63
2023/09/25 07:00:14;;;;;;;;;12.00;10.60;;;;;20.15;100.00;99686.47;6241650;28;96865;-63
2023/09/25 07:03:18;;;;;;;;;15.25;12.25;;;;;20.15;100.00;99681.00;6241364;28;96291;-63
2023/09/25 07:06:21;;;;;;;;;12.40;11.80;;;;;20.05;100.00;99681.75;6265048;27;97595;-63
2023/09/25 07:09:24;;;;;;;;;12.00;11.40;;;;;19.90;100.00;99682.50;6275032;27;96352;-63
2023/09/25 07:12:29;;;;;;;;;16.40;13.60;;;;;19.96;100.00;99680.63;6241297;28;96977;-64
2023/09/25 07:15:34;;;;;;;;;15.20;13.00;;;;;19.83;100.00;99681.91;6241410;28;96319;-63
2023/09/25 07:18:37;;;;;;;;;15.60;14.60;;;;;19.75;100.00;99687.03;6240479;28;96677;-63
2023/09/25 07:21:41;;;;;;;;;14.00;12.00;;;;;19.79;100.00;99682.69;6241908;28;96196;-63
2023/09/25 07:24:47;;;;;;;;;17.40;14.00;;;;;19.77;100.00;99685.69;6257308;27;96420;-63
2023/09/25 07:27:51;;;;;;;;;18.00;15.00;;;;;19.78;100.00;99686.50;6241157;27;96356;-62
2023/09/25 07:30:55;;;;;;;;;15.20;13.80;;;;;19.81;100.00;99688.72;6257614;27;96862;-63
2023/09/25 07:33:59;;;;;;;;;11.60;10.60;;;;;19.84;100.00;99674.53;6240280;28;96417;-63
2023/09/25 07:37:04;;;;;;;;;13.80;11.80;;;;;19.82;100.00;99682.16;6241910;28;96411;-63
2023/09/25 07:40:10;;;;;;;;;14.60;12.60;;;;;19.87;100.00;99683.03;6241477;28;96321;-62
2023/09/25 07:43:19;;;;;;;;;12.00;12.00;;;;;19.87;100.00;99672.09;6240643;28;96357;-63
2023/09/25 07:46:25;;;;;;;;;15.00;13.60;;;;;20.03;100.00;99678.50;6216536;28;96411;-62
2023/09/25 07:49:29;;;;;;;;;15.00;13.20;;;;;20.15;100.00;99679.09;6248914;27;96350;-63
2023/09/25 07:52:33;;;;;;;;;14.20;12.00;;;;;20.16;100.00;99686.22;6214907;28;96669;-63
2023/09/25 07:55:36;;;;;;;;;15.00;14.00;;;;;20.18;100.00;99686.75;6216337;28;96387;-63
2023/09/25 07:58:39;;;;;;;;;15.00;13.00;;;;;20.12;100.00;99687.84;6216109;28;96340;-63
2023/09/25 08:01:44;;;;;;;;;15.80;15.20;;;;;20.11;100.00;99682.63;6216170;28;96314;-63
2023/09/25 08:04:48;;;;;;;;;12.00;12.00;;;;;20.09;100.00;99682.06;6215920;28;96330;-63
2023/09/25 08:07:52;;;;;;;;;14.00;13.40;;;;;19.94;100.00;99687.47;6224661;28;97356;-63
2023/09/25 08:10:58;;;;;;;;;14.00;14.00;;;;;20.02;100.00;99676.84;6250741;27;96717;-62
2023/09/25 08:14:02;;;;;;;;;16.00;13.80;;;;;19.94;100.00;99679.25;6222074;28;96599;-63
2023/09/25 08:17:08;;;;;;;;;12.80;12.00;;;;;20.06;100.00;99683.41;6248916;27;96755;-63
2023/09/25 08:20:18;;;;;;;;;12.60;12.60;;;;;20.10;100.00;99686.44;6242297;27;96373;-64
2023/09/25 08:23:21;;;;;;;;;16.00;15.00;;;;;20.17;100.00;99693.34;6248713;27;96713;-63
2023/09/25 08:26:25;;;;;;;;;14.00;14.00;;;;;20.26;100.00;99697.25;6245140;27;96752;-63
2023/09/25 08:29:28;;;;;;;;;14.75;12.00;;;;;20.34;100.00;99704.16;6247156;27;96434;-63
2023/09/25 08:32:33;;;;;;;;;15.20;14.20;;;;;20.44;100.00;99717.06;6239801;28;96559;-63
2023/09/25 08:35:36;;;;;;;;;14.00;13.40;;;;;20.49;100.00;99715.19;6255310;27;96705;-63
2023/09/25 08:38:39;;;;;;;;;16.00;15.00;;;;;20.53;100.00;99713.56;6236570;28;96704;-63
2023/09/25 08:41:44;;;;;;;;;13.25;12.00;;;;;20.50;100.00;99725.06;6239615;27;96525;-63
2023/09/25 08:44:48;;;;;;;;;17.50;15.25;;;;;20.54;100.00;99719.88;6240713;28;96406;-63
2023/09/25 08:47:52;;;;;;;;;14.00;14.00;;;;;20.64;100.00;99723.47;6241576;28;96376;-63
2023/09/25 08:50:56;;;;;;;;;15.00;13.00;;;;;20.71;100.00;99721.34;6241529;28;96388;-63
2023/09/25 08:53:59;;;;;;;;;13.00;12.00;;;;;20.77;100.00;99722.16;6240963;28;96306;-63
2023/09/25 08:57:04;;;;;;;;;13.00;11.00;;;;;20.79;100.00;99716.41;6242195;28;96545;-63
2023/09/25 09:00:11;;;;;;;;;13.20;13.20;;;;;20.87;100.00;99716.72;6242009;28;96404;-63
2023/09/25 09:03:16;;;;;;;;;14.00;12.00;;;;;20.93;100.00;99714.81;6242073;27;96910;-63
2023/09/25 09:06:19;;;;;;;;;13.00;12.00;;;;;21.07;100.00;99722.25;6239692;28;96677;-63
2023/09/25 09:09:23;;;;;;;;;15.80;13.40;;;;;21.10;100.00;99719.00;6240014;28;98384;-62
2023/09/25 09:12:26;;;;;;;;;12.80;12.80;;;;;20.97;100.00;99726.88;6240567;28;96273;-64
2023/09/25 09:15:31;;;;;;;;;14.00;13.00;;;;;21.01;100.00;99722.53;6223589;28;97382;-63
2023/09/25 09:18:37;;;;;;;;;14.50;12.75;;;;;21.00;100.00;99712.66;6243007;28;96369;-63
2023/09/25 09:21:44;;;;;;;;;13.00;12.00;;;;;21.07;100.00;99718.69;6240951;28;96725;-63
2023/09/25 09:24:48;;;;;;;;;13.60;12.60;;;;;21.11;100.00;99720.63;6241790;28;96298;-63
2023/09/25 09:27:51;;;;;;;;;15.00;14.00;;;;;21.09;100.00;99711.88;6274164;27;96387;-63
2023/09/25 09:30:56;;;;;;;;;12.40;12.00;;;;;21.06;100.00;99715.13;6241613;28;96307;-63
2023/09/25 09:34:00;;;;;;;;;14.40;12.00;;;;;21.02;100.00;99704.97;6241410;28;96257;-63
2023/09/25 09:37:08;;;;;;;;;13.25;12.00;;;;;21.20;100.00;99707.25;6275212;27;96941;-63
2023/09/25 09:40:13;;;;;;;;;14.40;14.00;;;;;21.18;100.00;99709.44;6243685;27;96306;-63
2023/09/25 09:43:18;;;;;;;;;15.50;14.00;;;;;21.20;100.00;99707.25;6242082;27;96653;-63
2023/09/25 09:46:26;;;;;;;;;13.00;12.60;;;;;21.36;100.00;99703.44;6242743;28;96471;-63
2023/09/25 09:49:33;;;;;;;;;12.50;12.50;;;;;21.53;100.00;99701.25;6242429;28;96421;-63
2023/09/25 09:52:39;;;;;;;;;13.00;12.50;;;;;21.49;100.00;99707.56;6243319;27;96422;-63
2023/09/25 09:55:44;;;;;;;;;12.60;12.00;;;;;21.62;100.00;99707.03;6243631;28;96555;-63
2023/09/25 09:58:49;;;;;;;;;14.40;13.00;;;;;21.76;100.00;99708.13;6241268;28;96337;-63
2023/09/25 10:01:53;;;;;;;;;12.60;11.60;;;;;21.82;100.00;99712.50;6243781;28;96987;-63
2023/09/25 10:04:58;;;;;;;;;13.40;11.40;;;;;21.95;100.00;99719.38;6243201;28;96848;-63
2023/09/25 10:08:10;;;;;;;;;12.00;10.25;;;;;22.06;100.00;99718.28;6245058;28;96284;-63
2023/09/25 10:11:23;;;;;;;;;13.40;13.40;;;;;22.15;100.00;99724.03;6245664;28;96475;-63
2023/09/25 10:14:29;;;;;;;;;13.00;12.00;;;;;22.25;100.00;99727.59;6246711;28;96472;-63
2023/09/25 10:17:41;;;;;;;;;13.00;12.00;;;;;22.32;100.00;99714.41;6244931;28;96753;-63
2023/09/25 10:20:46;;;;;;;;;12.00;11.00;;;;;22.34;100.00;99725.91;6247684;27;96329;-63
2023/09/25 10:23:54;;;;;;;;;13.00;12.00;;;;;22.33;100.00;99723.47;6247741;28;97076;-62
2023/09/25 10:26:57;;;;;;;;;12.75;11.00;;;;;22.30;100.00;99722.09;6247404;28;96384;-63
2023/09/25 10:30:08;;;;;;;;;15.00;13.80;;;;;22.29;100.00;99711.38;6229257;28;98687;-63
2023/09/25 10:33:11;;;;;;;;;15.20;13.60;;;;;22.33;100.00;99715.22;6247985;27;96368;-63
2023/09/25 10:36:17;;;;;;;;;12.60;12.00;;;;;22.29;100.00;99714.13;6246000;28;98400;-63
2023/09/25 10:39:20;;;;;;;;;13.40;12.60;;;;;22.19;100.00;99705.91;6246892;28;96405;-63
2023/09/25 10:42:23;;;;;;;;;12.40;11.60;;;;;22.33;100.00;99704.25;6247073;28;98872;-63
2023/09/25 10:45:27;;;;;;;;;11.60;10.20;;;;;22.36;100.00;99718.25;6248012;28;96820;-63
2023/09/25 10:48:31;;;;;;;;;15.00;14.00;;;;;22.40;100.00;99716.56;6248889;27;96284;-63
2023/09/25 10:51:36;;;;;;;;;10.80;9.60;;;;;22.41;100.00;99714.66;6237756;28;97538;-63
2023/09/25 10:54:39;;;;;;;;;12.60;12.60;;;;;22.35;100.00;99715.75;6268926;27;97823;-62
2023/09/25 10:57:43;;;;;;;;;11.00;11.00;;;;;22.44;100.00;99716.81;6239185;28;97097;-64
2023/09/25 11:00:49;;;;;;;;;13.40;12.40;;;;;22.31;100.00;99709.19;6243098;28;96974;-62
2023/09/25 11:03:55;;;;;;;;;13.80;13.00;;;;;22.45;100.00;99712.97;6246652;27;96418;-63
2023/09/25 11:07:00;;;;;;;;;13.40;12.40;;;;;22.36;100.00;99718.25;6250661;27;96338;-63
2023/09/25 11:10:04;;;;;;;;;12.00;10.00;;;;;22.44;100.00;99708.59;6241056;28;96927;-64
2023/09/25 11:13:10;;;;;;;;;13.67;12.00;;;;;22.48;100.00;99715.16;6253711;27;96297;-63
2023/09/25 11:16:14;;;;;;;;;11.00;11.00;;;;;22.70;100.00;99715.69;6241759;27;96302;-63
2023/09/25 11:19:17;;;;;;;;;13.40;10.40;;;;;22.83;100.00;99717.00;6238955;28;96507;-64
2023/09/25 11:22:27;;;;;;;;;13.60;11.60;;;;;22.93;100.00;99718.88;6263932;27;96389;-63
2023/09/25 11:25:30;;;;;;;;;11.00;9.00;;;;;22.88;100.00;99719.72;6253154;28;96348;-63
2023/09/25 11:28:33;;;;;;;;;10.75;10.00;;;;;22.89;100.00;99719.44;6269123;27;96488;-64
2023/09/25 11:31:37;;;;;;;;;12.00;11.00;;;;;22.93;100.00;99716.94;6253906;28;96636;-63
2023/09/25 11:35:01;;;;;;;;;12.00;11.00;;;;;22.85;100.00;99710.13;6253839;27;96294;-64
2023/09/25 11:38:15;;;;;;;;;11.00;10.00;;;;;22.79;100.00;99710.41;6252237;28;96292;-63
2023/09/25 11:41:19;;;;;;;;;11.00;11.00;;;;;22.77;100.00;99709.91;6269842;27;96272;-64
2023/09/25 11:44:22;;;;;;;;;14.00;12.00;;;;;22.83;100.00;99715.06;6253989;28;96349;-63
2023/09/25 11:47:25;;;;;;;;;11.40;11.00;;;;;22.89;100.00;99713.13;6252321;28;96844;-63
2023/09/25 11:50:29;;;;;;;;;11.80;11.40;;;;;23.06;100.00;99708.09;6252899;28;96319;-63
2023/09/25 11:53:33;;;;;;;;;10.00;10.00;;;;;23.17;100.00;99708.84;6238119;27;96307;-63
2023/09/25 11:56:36;;;;;;;;;12.00;11.00;;;;;23.35;100.00;99707.38;6249032;28;96277;-63
2023/09/25 11:59:42;;;;;;;;;13.00;13.00;;;;;23.31;100.00;99720.88;6251502;27;96327;-63
2023/09/25 12:02:46;;;;;;;;;9.67;8.00;;;;;23.37;100.00;99716.13;6245876;28;96543;-63
2023/09/25 12:05:50;;;;;;;;;12.80;11.20;;;;;23.30;100.00;99720.06;6236747;28;96712;-63
2023/09/25 12:08:55;;;;;;;;;10.20;10.20;;;;;23.25;100.00;99716.50;6249181;28;96880;-63
2023/09/25 12:11:58;;;;;;;;;11.00;10.60;;;;;23.20;100.00;99713.78;6238684;28;96929;-63
2023/09/25 12:15:03;;;;;;;;;11.00;10.00;;;;;23.08;100.00;99705.03;6250056;27;96194;-63
2023/09/25 12:18:07;;;;;;;;;13.80;12.40;;;;;23.13;100.00;99703.09;6245767;28;96340;-64
2023/09/25 12:21:11;;;;;;;;;13.00;11.00;;;;;23.13;100.00;99696.75;6252301;27;96426;-63
2023/09/25 12:24:18;;;;;;;;;11.00;10.00;;;;;23.00;100.00;99697.41;6262044;27;96312;-63
2023/09/25 12:27:22;;;;;;;;;12.00;11.00;;;;;23.04;100.00;99691.03;6247550;27;96299;-64
2023/09/25 12:30:25;;;;;;;;;11.20;9.80;;;;;23.04;100.00;99696.53;6271603;27;96406;-64
2023/09/25 12:33:29;;;;;;;;;10.00;9.25;;;;;23.04;100.00;99698.47;6270886;27;96416;-64
2023/09/25 12:36:32;;;;;;;;;12.00;10.00;;;;;23.02;100.00;99690.50;6255181;28;96857;-64
2023/09/25 12:39:38;;;;;;;;;11.60;10.00;;;;;22.97;100.00;99695.22;6255075;27;96251;-63
2023/09/25 12:42:42;;;;;;;;;11.00;10.00;;;;;22.97;100.00;99696.03;6270251;27;96842;-64
2023/09/25 12:45:57;;;;;;;;;11.20;11.00;;;;;22.96;100.00;99701.81;6250932;28;96447;-64
2023/09/25 12:49:01;;;;;;;;;10.33;10.00;;;;;22.93;100.00;99696.88;6247302;27;96352;-64
2023/09/25 12:52:04;;;;;;;;;11.00;11.00;;;;;22.97;100.00;99690.53;6251676;27;97102;-63
2023/09/25 12:55:09;;;;;;;;;11.00;9.40;;;;;23.01;100.00;99697.13;6261660;27;96395;-64
2023/09/25 12:58:13;;;;;;;;;9.00;8.00;;;;;22.90;100.00;99698.28;6254432;27;96420;-63
2023/09/25 13:01:16;;;;;;;;;9.80;9.00;;;;;22.91;100.00;99699.94;6250569;27;96295;-63
2023/09/25 13:04:19;;;;;;;;;11.00;10.00;;;;;22.69;100.00;99707.69;6249838;28;98504;-64
2023/09/25 13:07:23;;;;;;;;;13.00;11.00;;;;;22.61;100.00;99702.78;6257164;27;96345;-64
2023/09/25 13:10:28;;;;;;;;;13.00;10.25;;;;;22.59;100.00;99713.22;6230809;28;96382;-65
2023/09/25 13:13:31;;;;;;;;;12.00;11.00;;;;;22.43;100.00;99712.47;6244698;28;96380;-64
2023/09/25 13:16:35;;;;;;;;;12.33;11.00;;;;;22.48;100.00;99709.66;6265765;27;96917;-64
2023/09/25 13:19:41;;;;;;;;;14.00;13.00;;;;;22.50;100.00;99721.22;6230974;28;96925;-64
2023/09/25 13:22:45;;;;;;;;;9.00;9.00;;;;;22.56;100.00;99722.03;6251277;27;96305;-63
2023/09/25 13:25:50;;;;;;;;;11.00;10.00;;;;;22.63;100.00;99723.34;6247650;28;96425;-63
2023/09/25 13:28:54;;;;;;;;;11.25;11.00;;;;;22.57;100.00;99724.50;6248152;28;98408;-64
2023/09/25 13:31:57;;;;;;;;;12.00;10.40;;;;;22.51;100.00;99725.63;6243771;28;96448;-63
2023/09/25 13:35:01;;;;;;;;;12.00;11.60;;;;;22.41;100.00;99728.38;6248845;27;97006;-63
2023/09/25 13:38:04;;;;;;;;;14.00;12.00;;;;;22.39;100.00;99720.41;6244522;28;96355;-63
2023/09/25 13:41:11;;;;;;;;;13.40;13.00;;;;;22.44;100.00;99727.81;6244267;28;97328;-64
2023/09/25 13:44:14;;;;;;;;;10.00;9.00;;;;;22.35;100.00;99721.25;6247685;28;97022;-64
2023/09/25 13:47:17;;;;;;;;;11.40;10.60;;;;;22.31;100.00;99718.25;6244421;28;96553;-64
2023/09/25 13:50:20;;;;;;;;;15.00;12.00;;;;;22.22;100.00;99711.69;6247380;28;96380;-63
2023/09/25 13:53:23;;;;;;;;;12.00;11.40;;;;;22.27;100.00;99717.16;6249098;27;96421;-63
2023/09/25 13:56:28;;;;;;;;;12.25;12.00;;;;;22.41;100.00;99718.22;6249360;28;96361;-64
2023/09/25 13:59:32;;;;;;;;;14.00;12.00;;;;;22.55;100.00;99720.38;6251003;28;96405;-64